sensor_id;sensor_type;location;lat;lon;timestamp;P1;durP1;ratioP1;P2;durP2;ratioP2
6378;SDS011;3222;48.858;10.128;2024-03-08T00:01:06;18.47;;;15.13;;
6378;SDS011;3222;48.858;10.128;2024-03-08T00:03:32;19.43;;;14.73;;
6378;SDS011;3222;48.858;10.128;2024-03-08T00:05:58;19.47;;;15.43;;
6378;SDS011;3222;48.858;10.128;2024-03-08T00:08:24;18.87;;;14.80;;
6378;SDS011;3222;48.858;10.128;2024-03-08T00:10:50;19.23;;;14.63;;
6378;SDS011;3222;48.858;10.128;2024-03-08T00:13:16;21.07;;;14.23;;
6378;SDS011;3222;48.858;10.128;2024-03-08T00:15:42;18.70;;;15.10;;
6378;SDS011;3222;48.858;10.128;2024-03-08T00:18:07;18.67;;;14.17;;
6378;SDS011;3222;48.858;10.128;2024-03-08T00:20:33;21.03;;;15.17;;
6378;SDS011;3222;48.858;10.128;2024-03-08T00:22:58;19.10;;;14.83;;
6378;SDS011;3222;48.858;10.128;2024-03-08T00:25:24;19.63;;;15.07;;
6378;SDS011;3222;48.858;10.128;2024-03-08T00:27:50;18.60;;;14.63;;
6378;SDS011;3222;48.858;10.128;2024-03-08T00:30:16;19.23;;;14.90;;
6378;SDS011;3222;48.858;10.128;2024-03-08T00:32:42;17.93;;;14.13;;
6378;SDS011;3222;48.858;10.128;2024-03-08T00:35:08;19.50;;;15.13;;
6378;SDS011;3222;48.858;10.128;2024-03-08T00:37:33;20.07;;;14.93;;
6378;SDS011;3222;48.858;10.128;2024-03-08T00:40:02;20.87;;;14.83;;
6378;SDS011;3222;48.858;10.128;2024-03-08T00:42:28;18.53;;;14.33;;
6378;SDS011;3222;48.858;10.128;2024-03-08T00:44:54;18.93;;;14.83;;
6378;SDS011;3222;48.858;10.128;2024-03-08T00:47:19;19.17;;;15.13;;
6378;SDS011;3222;48.858;10.128;2024-03-08T00:49:45;24.60;;;15.60;;
6378;SDS011;3222;48.858;10.128;2024-03-08T00:52:11;19.00;;;14.83;;
6378;SDS011;3222;48.858;10.128;2024-03-08T00:54:37;19.43;;;14.77;;
6378;SDS011;3222;48.858;10.128;2024-03-08T00:57:03;19.20;;;15.00;;
6378;SDS011;3222;48.858;10.128;2024-03-08T00:59:29;20.30;;;16.00;;
6378;SDS011;3222;48.858;10.128;2024-03-08T01:01:58;21.13;;;15.27;;
6378;SDS011;3222;48.858;10.128;2024-03-08T01:04:25;21.07;;;14.63;;
6378;SDS011;3222;48.858;10.128;2024-03-08T01:06:54;20.90;;;15.87;;
6378;SDS011;3222;48.858;10.128;2024-03-08T01:09:21;19.33;;;15.70;;
6378;SDS011;3222;48.858;10.128;2024-03-08T01:11:48;20.70;;;15.73;;
6378;SDS011;3222;48.858;10.128;2024-03-08T01:14:14;21.43;;;16.03;;
6378;SDS011;3222;48.858;10.128;2024-03-08T01:16:40;20.17;;;15.30;;
6378;SDS011;3222;48.858;10.128;2024-03-08T01:19:06;19.17;;;15.23;;
6378;SDS011;3222;48.858;10.128;2024-03-08T01:21:32;23.10;;;16.37;;
6378;SDS011;3222;48.858;10.128;2024-03-08T01:23:58;24.80;;;16.53;;
6378;SDS011;3222;48.858;10.128;2024-03-08T01:26:23;21.17;;;16.07;;
6378;SDS011;3222;48.858;10.128;2024-03-08T01:28:49;22.40;;;16.27;;
6378;SDS011;3222;48.858;10.128;2024-03-08T01:31:15;21.00;;;15.97;;
6378;SDS011;3222;48.858;10.128;2024-03-08T01:33:41;21.37;;;16.43;;
6378;SDS011;3222;48.858;10.128;2024-03-08T01:36:07;21.37;;;16.13;;
6378;SDS011;3222;48.858;10.128;2024-03-08T01:38:33;20.07;;;15.77;;
6378;SDS011;3222;48.858;10.128;2024-03-08T01:40:58;20.50;;;16.20;;
6378;SDS011;3222;48.858;10.128;2024-03-08T01:43:28;19.33;;;15.03;;
6378;SDS011;3222;48.858;10.128;2024-03-08T01:45:55;21.80;;;16.63;;
6378;SDS011;3222;48.858;10.128;2024-03-08T01:48:23;20.43;;;16.50;;
6378;SDS011;3222;48.858;10.128;2024-03-08T01:50:51;22.67;;;16.17;;
6378;SDS011;3222;48.858;10.128;2024-03-08T01:53:17;20.13;;;16.20;;
6378;SDS011;3222;48.858;10.128;2024-03-08T01:55:48;23.33;;;16.20;;
6378;SDS011;3222;48.858;10.128;2024-03-08T01:58:14;21.70;;;16.77;;
6378;SDS011;3222;48.858;10.128;2024-03-08T02:00:44;21.43;;;16.23;;
6378;SDS011;3222;48.858;10.128;2024-03-08T02:03:11;22.83;;;17.27;;
6378;SDS011;3222;48.858;10.128;2024-03-08T02:05:37;22.33;;;17.80;;
6378;SDS011;3222;48.858;10.128;2024-03-08T02:08:05;26.43;;;17.57;;
6378;SDS011;3222;48.858;10.128;2024-03-08T02:10:43;20.73;;;15.97;;
6378;SDS011;3222;48.858;10.128;2024-03-08T02:13:10;22.63;;;16.80;;
6378;SDS011;3222;48.858;10.128;2024-03-08T02:16:09;21.83;;;18.00;;
6378;SDS011;3222;48.858;10.128;2024-03-08T02:18:29;23.93;;;17.50;;
6378;SDS011;3222;48.858;10.128;2024-03-08T02:20:56;21.70;;;16.43;;
6378;SDS011;3222;48.858;10.128;2024-03-08T02:23:23;24.43;;;17.60;;
6378;SDS011;3222;48.858;10.128;2024-03-08T02:25:52;21.23;;;16.87;;
6378;SDS011;3222;48.858;10.128;2024-03-08T02:28:19;21.00;;;16.70;;
6378;SDS011;3222;48.858;10.128;2024-03-08T02:30:49;22.97;;;17.07;;
6378;SDS011;3222;48.858;10.128;2024-03-08T02:33:16;22.00;;;17.57;;
6378;SDS011;3222;48.858;10.128;2024-03-08T02:35:43;23.47;;;18.13;;
6378;SDS011;3222;48.858;10.128;2024-03-08T02:38:12;22.47;;;16.93;;
6378;SDS011;3222;48.858;10.128;2024-03-08T02:40:42;19.47;;;16.30;;
6378;SDS011;3222;48.858;10.128;2024-03-08T02:43:09;21.27;;;16.73;;
6378;SDS011;3222;48.858;10.128;2024-03-08T02:45:35;23.07;;;18.63;;
6378;SDS011;3222;48.858;10.128;2024-03-08T02:48:01;20.10;;;16.23;;
6378;SDS011;3222;48.858;10.128;2024-03-08T02:50:28;20.03;;;16.33;;
6378;SDS011;3222;48.858;10.128;2024-03-08T02:52:53;21.73;;;16.47;;
6378;SDS011;3222;48.858;10.128;2024-03-08T02:55:19;21.57;;;17.27;;
6378;SDS011;3222;48.858;10.128;2024-03-08T02:57:46;21.50;;;16.47;;
6378;SDS011;3222;48.858;10.128;2024-03-08T03:00:14;20.00;;;15.93;;
6378;SDS011;3222;48.858;10.128;2024-03-08T03:02:41;22.37;;;16.37;;
6378;SDS011;3222;48.858;10.128;2024-03-08T03:05:07;22.43;;;17.27;;
6378;SDS011;3222;48.858;10.128;2024-03-08T03:07:38;23.40;;;17.63;;
6378;SDS011;3222;48.858;10.128;2024-03-08T03:10:03;21.47;;;16.60;;
6378;SDS011;3222;48.858;10.128;2024-03-08T03:12:30;21.43;;;16.47;;
6378;SDS011;3222;48.858;10.128;2024-03-08T03:14:59;21.43;;;16.80;;
6378;SDS011;3222;48.858;10.128;2024-03-08T03:17:25;23.50;;;17.10;;
6378;SDS011;3222;48.858;10.128;2024-03-08T03:19:51;20.73;;;16.57;;
6378;SDS011;3222;48.858;10.128;2024-03-08T03:22:18;20.30;;;15.83;;
6378;SDS011;3222;48.858;10.128;2024-03-08T03:24:44;21.33;;;17.00;;
6378;SDS011;3222;48.858;10.128;2024-03-08T03:27:16;21.00;;;16.73;;
6378;SDS011;3222;48.858;10.128;2024-03-08T03:29:42;24.63;;;18.67;;
6378;SDS011;3222;48.858;10.128;2024-03-08T03:32:12;24.00;;;18.10;;
6378;SDS011;3222;48.858;10.128;2024-03-08T03:34:38;24.37;;;18.17;;
6378;SDS011;3222;48.858;10.128;2024-03-08T03:37:09;25.13;;;18.83;;
6378;SDS011;3222;48.858;10.128;2024-03-08T03:39:37;23.70;;;18.30;;
6378;SDS011;3222;48.858;10.128;2024-03-08T03:42:18;24.70;;;18.67;;
6378;SDS011;3222;48.858;10.128;2024-03-08T03:44:47;27.13;;;18.37;;
6378;SDS011;3222;48.858;10.128;2024-03-08T03:47:16;23.70;;;17.20;;
6378;SDS011;3222;48.858;10.128;2024-03-08T03:49:42;24.50;;;18.40;;
6378;SDS011;3222;48.858;10.128;2024-03-08T03:52:08;26.93;;;19.87;;
6378;SDS011;3222;48.858;10.128;2024-03-08T03:54:35;23.73;;;18.47;;
6378;SDS011;3222;48.858;10.128;2024-03-08T03:57:01;24.63;;;17.83;;
6378;SDS011;3222;48.858;10.128;2024-03-08T03:59:28;27.73;;;19.80;;
6378;SDS011;3222;48.858;10.128;2024-03-08T04:01:56;24.50;;;18.90;;
6378;SDS011;3222;48.858;10.128;2024-03-08T04:04:22;23.83;;;18.60;;
6378;SDS011;3222;48.858;10.128;2024-03-08T04:06:49;26.47;;;20.03;;
6378;SDS011;3222;48.858;10.128;2024-03-08T04:09:16;26.50;;;20.00;;
6378;SDS011;3222;48.858;10.128;2024-03-08T04:11:44;25.67;;;19.63;;
6378;SDS011;3222;48.858;10.128;2024-03-08T04:14:10;26.57;;;20.50;;
6378;SDS011;3222;48.858;10.128;2024-03-08T04:16:37;25.97;;;20.70;;
6378;SDS011;3222;48.858;10.128;2024-03-08T04:19:02;29.03;;;21.27;;
6378;SDS011;3222;48.858;10.128;2024-03-08T04:21:32;26.67;;;20.10;;
6378;SDS011;3222;48.858;10.128;2024-03-08T04:23:58;27.70;;;20.53;;
6378;SDS011;3222;48.858;10.128;2024-03-08T04:26:23;26.33;;;19.77;;
6378;SDS011;3222;48.858;10.128;2024-03-08T04:28:51;28.97;;;20.47;;
6378;SDS011;3222;48.858;10.128;2024-03-08T04:31:16;25.73;;;20.47;;
6378;SDS011;3222;48.858;10.128;2024-03-08T04:33:42;27.50;;;20.33;;
6378;SDS011;3222;48.858;10.128;2024-03-08T04:36:09;24.40;;;18.97;;
6378;SDS011;3222;48.858;10.128;2024-03-08T04:38:38;24.93;;;20.27;;
6378;SDS011;3222;48.858;10.128;2024-03-08T04:41:07;31.17;;;21.63;;
6378;SDS011;3222;48.858;10.128;2024-03-08T04:43:34;28.07;;;20.43;;
6378;SDS011;3222;48.858;10.128;2024-03-08T04:45:59;27.07;;;20.07;;
6378;SDS011;3222;48.858;10.128;2024-03-08T04:48:25;26.77;;;20.57;;
6378;SDS011;3222;48.858;10.128;2024-03-08T04:50:53;25.43;;;19.20;;
6378;SDS011;3222;48.858;10.128;2024-03-08T04:53:20;28.93;;;20.50;;
6378;SDS011;3222;48.858;10.128;2024-03-08T04:55:46;27.97;;;20.13;;
6378;SDS011;3222;48.858;10.128;2024-03-08T04:58:12;27.17;;;20.67;;
6378;SDS011;3222;48.858;10.128;2024-03-08T05:00:38;26.20;;;20.00;;
6378;SDS011;3222;48.858;10.128;2024-03-08T05:03:03;25.37;;;19.03;;
6378;SDS011;3222;48.858;10.128;2024-03-08T05:05:30;26.80;;;19.07;;
6378;SDS011;3222;48.858;10.128;2024-03-08T05:07:56;28.67;;;21.10;;
6378;SDS011;3222;48.858;10.128;2024-03-08T05:10:21;28.33;;;20.77;;
6378;SDS011;3222;48.858;10.128;2024-03-08T05:12:47;26.43;;;19.90;;
6378;SDS011;3222;48.858;10.128;2024-03-08T05:15:13;24.83;;;19.60;;
6378;SDS011;3222;48.858;10.128;2024-03-08T05:17:39;26.13;;;19.77;;
6378;SDS011;3222;48.858;10.128;2024-03-08T05:20:05;26.33;;;20.40;;
6378;SDS011;3222;48.858;10.128;2024-03-08T05:22:37;28.00;;;20.63;;
6378;SDS011;3222;48.858;10.128;2024-03-08T05:25:03;28.70;;;20.53;;
6378;SDS011;3222;48.858;10.128;2024-03-08T05:27:29;27.10;;;20.83;;
6378;SDS011;3222;48.858;10.128;2024-03-08T05:29:54;27.37;;;21.00;;
6378;SDS011;3222;48.858;10.128;2024-03-08T05:32:20;30.20;;;21.90;;
6378;SDS011;3222;48.858;10.128;2024-03-08T05:34:46;27.03;;;21.27;;
6378;SDS011;3222;48.858;10.128;2024-03-08T05:37:12;28.67;;;21.57;;
6378;SDS011;3222;48.858;10.128;2024-03-08T05:39:37;26.40;;;21.20;;
6378;SDS011;3222;48.858;10.128;2024-03-08T05:42:03;28.00;;;21.70;;
6378;SDS011;3222;48.858;10.128;2024-03-08T05:44:29;26.77;;;20.93;;
6378;SDS011;3222;48.858;10.128;2024-03-08T05:46:56;29.37;;;21.93;;
6378;SDS011;3222;48.858;10.128;2024-03-08T05:49:21;27.87;;;21.33;;
6378;SDS011;3222;48.858;10.128;2024-03-08T05:51:47;27.37;;;20.73;;
6378;SDS011;3222;48.858;10.128;2024-03-08T05:54:13;28.50;;;22.07;;
6378;SDS011;3222;48.858;10.128;2024-03-08T05:56:39;27.97;;;21.30;;
6378;SDS011;3222;48.858;10.128;2024-03-08T05:59:08;33.50;;;21.77;;
6378;SDS011;3222;48.858;10.128;2024-03-08T06:01:35;28.30;;;21.27;;
6378;SDS011;3222;48.858;10.128;2024-03-08T06:04:05;27.20;;;20.70;;
6378;SDS011;3222;48.858;10.128;2024-03-08T06:06:32;27.27;;;20.67;;
6378;SDS011;3222;48.858;10.128;2024-03-08T06:08:58;27.83;;;20.50;;
6378;SDS011;3222;48.858;10.128;2024-03-08T06:11:24;27.53;;;20.27;;
6378;SDS011;3222;48.858;10.128;2024-03-08T06:13:55;29.17;;;21.33;;
6378;SDS011;3222;48.858;10.128;2024-03-08T06:16:25;26.53;;;20.30;;
6378;SDS011;3222;48.858;10.128;2024-03-08T06:18:55;26.77;;;19.87;;
6378;SDS011;3222;48.858;10.128;2024-03-08T06:21:23;27.93;;;20.50;;
6378;SDS011;3222;48.858;10.128;2024-03-08T06:23:52;25.23;;;19.10;;
6378;SDS011;3222;48.858;10.128;2024-03-08T06:26:22;26.83;;;19.83;;
6378;SDS011;3222;48.858;10.128;2024-03-08T06:28:49;28.50;;;21.03;;
6378;SDS011;3222;48.858;10.128;2024-03-08T06:31:16;28.77;;;21.17;;
6378;SDS011;3222;48.858;10.128;2024-03-08T06:33:41;29.17;;;21.47;;
6378;SDS011;3222;48.858;10.128;2024-03-08T06:36:08;27.30;;;19.63;;
6378;SDS011;3222;48.858;10.128;2024-03-08T06:38:34;25.97;;;18.70;;
6378;SDS011;3222;48.858;10.128;2024-03-08T06:41:00;27.60;;;20.23;;
6378;SDS011;3222;48.858;10.128;2024-03-08T06:43:28;26.27;;;19.90;;
6378;SDS011;3222;48.858;10.128;2024-03-08T06:45:59;28.30;;;20.73;;
6378;SDS011;3222;48.858;10.128;2024-03-08T06:48:24;26.20;;;19.27;;
6378;SDS011;3222;48.858;10.128;2024-03-08T06:50:50;26.87;;;20.57;;
6378;SDS011;3222;48.858;10.128;2024-03-08T06:53:16;30.33;;;20.80;;
6378;SDS011;3222;48.858;10.128;2024-03-08T06:55:44;27.53;;;20.50;;
6378;SDS011;3222;48.858;10.128;2024-03-08T06:58:10;25.77;;;19.90;;
6378;SDS011;3222;48.858;10.128;2024-03-08T07:00:36;28.57;;;20.03;;
6378;SDS011;3222;48.858;10.128;2024-03-08T07:03:02;27.30;;;20.60;;
6378;SDS011;3222;48.858;10.128;2024-03-08T07:05:28;26.37;;;19.67;;
6378;SDS011;3222;48.858;10.128;2024-03-08T07:07:55;29.43;;;20.87;;
6378;SDS011;3222;48.858;10.128;2024-03-08T07:10:21;29.00;;;21.50;;
6378;SDS011;3222;48.858;10.128;2024-03-08T07:12:49;27.77;;;20.10;;
6378;SDS011;3222;48.858;10.128;2024-03-08T07:15:15;28.70;;;20.03;;
6378;SDS011;3222;48.858;10.128;2024-03-08T07:17:44;30.10;;;21.37;;
6378;SDS011;3222;48.858;10.128;2024-03-08T07:20:10;29.43;;;21.47;;
6378;SDS011;3222;48.858;10.128;2024-03-08T07:22:38;28.07;;;21.80;;
6378;SDS011;3222;48.858;10.128;2024-03-08T07:25:05;27.93;;;20.13;;
6378;SDS011;3222;48.858;10.128;2024-03-08T07:27:49;30.23;;;21.17;;
6378;SDS011;3222;48.858;10.128;2024-03-08T07:30:19;29.93;;;21.83;;
6378;SDS011;3222;48.858;10.128;2024-03-08T07:33:05;31.37;;;20.87;;
6378;SDS011;3222;48.858;10.128;2024-03-08T07:35:32;31.60;;;21.63;;
6378;SDS011;3222;48.858;10.128;2024-03-08T07:37:58;32.17;;;21.97;;
6378;SDS011;3222;48.858;10.128;2024-03-08T07:40:25;30.87;;;22.13;;
6378;SDS011;3222;48.858;10.128;2024-03-08T07:42:51;30.87;;;20.83;;
6378;SDS011;3222;48.858;10.128;2024-03-08T07:45:16;31.27;;;21.93;;
6378;SDS011;3222;48.858;10.128;2024-03-08T07:47:42;32.00;;;21.50;;
6378;SDS011;3222;48.858;10.128;2024-03-08T07:50:08;31.13;;;21.03;;
6378;SDS011;3222;48.858;10.128;2024-03-08T07:52:35;33.33;;;22.23;;
6378;SDS011;3222;48.858;10.128;2024-03-08T07:55:01;30.23;;;21.60;;
6378;SDS011;3222;48.858;10.128;2024-03-08T07:57:29;31.97;;;21.70;;
6378;SDS011;3222;48.858;10.128;2024-03-08T07:59:55;32.53;;;21.80;;
6378;SDS011;3222;48.858;10.128;2024-03-08T08:02:21;33.93;;;22.10;;
6378;SDS011;3222;48.858;10.128;2024-03-08T08:04:47;32.63;;;22.43;;
6378;SDS011;3222;48.858;10.128;2024-03-08T08:07:12;35.63;;;22.27;;
6378;SDS011;3222;48.858;10.128;2024-03-08T08:09:39;31.00;;;22.00;;
6378;SDS011;3222;48.858;10.128;2024-03-08T08:12:10;28.70;;;20.80;;
6378;SDS011;3222;48.858;10.128;2024-03-08T08:14:37;29.67;;;21.23;;
6378;SDS011;3222;48.858;10.128;2024-03-08T08:17:04;32.73;;;21.73;;
6378;SDS011;3222;48.858;10.128;2024-03-08T08:19:30;32.10;;;22.77;;
6378;SDS011;3222;48.858;10.128;2024-03-08T08:21:57;30.80;;;21.50;;
6378;SDS011;3222;48.858;10.128;2024-03-08T08:24:23;31.70;;;22.00;;
6378;SDS011;3222;48.858;10.128;2024-03-08T08:26:49;30.40;;;21.13;;
6378;SDS011;3222;48.858;10.128;2024-03-08T08:29:15;34.50;;;23.03;;
6378;SDS011;3222;48.858;10.128;2024-03-08T08:31:41;31.83;;;21.60;;
6378;SDS011;3222;48.858;10.128;2024-03-08T08:34:09;34.63;;;22.33;;
6378;SDS011;3222;48.858;10.128;2024-03-08T08:36:37;35.27;;;23.23;;
6378;SDS011;3222;48.858;10.128;2024-03-08T08:39:04;32.90;;;22.50;;
6378;SDS011;3222;48.858;10.128;2024-03-08T08:41:37;33.10;;;22.80;;
6378;SDS011;3222;48.858;10.128;2024-03-08T08:44:03;35.17;;;22.47;;
6378;SDS011;3222;48.858;10.128;2024-03-08T08:46:28;32.47;;;23.30;;
6378;SDS011;3222;48.858;10.128;2024-03-08T08:48:54;33.67;;;22.27;;
6378;SDS011;3222;48.858;10.128;2024-03-08T08:51:20;34.90;;;22.60;;
6378;SDS011;3222;48.858;10.128;2024-03-08T08:53:48;31.43;;;22.20;;
6378;SDS011;3222;48.858;10.128;2024-03-08T08:56:13;33.23;;;22.23;;
6378;SDS011;3222;48.858;10.128;2024-03-08T08:58:41;34.37;;;23.03;;
6378;SDS011;3222;48.858;10.128;2024-03-08T09:01:10;35.37;;;24.40;;
6378;SDS011;3222;48.858;10.128;2024-03-08T09:03:39;34.17;;;22.53;;
6378;SDS011;3222;48.858;10.128;2024-03-08T09:06:11;31.00;;;22.30;;
6378;SDS011;3222;48.858;10.128;2024-03-08T09:08:40;34.10;;;23.33;;
6378;SDS011;3222;48.858;10.128;2024-03-08T09:11:06;31.30;;;21.30;;
6378;SDS011;3222;48.858;10.128;2024-03-08T09:13:32;32.83;;;22.73;;
6378;SDS011;3222;48.858;10.128;2024-03-08T09:16:04;31.33;;;21.57;;
6378;SDS011;3222;48.858;10.128;2024-03-08T09:18:31;31.70;;;22.43;;
6378;SDS011;3222;48.858;10.128;2024-03-08T09:20:57;36.17;;;23.13;;
6378;SDS011;3222;48.858;10.128;2024-03-08T09:23:24;35.13;;;22.67;;
6378;SDS011;3222;48.858;10.128;2024-03-08T09:25:55;32.97;;;22.93;;
6378;SDS011;3222;48.858;10.128;2024-03-08T09:28:22;32.70;;;23.73;;
6378;SDS011;3222;48.858;10.128;2024-03-08T09:30:48;35.23;;;24.37;;
6378;SDS011;3222;48.858;10.128;2024-03-08T09:33:14;38.50;;;24.60;;
6378;SDS011;3222;48.858;10.128;2024-03-08T09:35:44;34.57;;;23.00;;
6378;SDS011;3222;48.858;10.128;2024-03-08T09:38:13;32.07;;;22.13;;
6378;SDS011;3222;48.858;10.128;2024-03-08T09:40:42;33.83;;;22.47;;
6378;SDS011;3222;48.858;10.128;2024-03-08T09:43:12;33.53;;;23.37;;
6378;SDS011;3222;48.858;10.128;2024-03-08T09:45:37;35.83;;;22.10;;
6378;SDS011;3222;48.858;10.128;2024-03-08T09:48:12;32.47;;;23.13;;
6378;SDS011;3222;48.858;10.128;2024-03-08T09:50:42;35.33;;;21.40;;
6378;SDS011;3222;48.858;10.128;2024-03-08T09:53:08;34.20;;;22.07;;
6378;SDS011;3222;48.858;10.128;2024-03-08T09:55:36;32.17;;;22.07;;
6378;SDS011;3222;48.858;10.128;2024-03-08T09:58:07;31.93;;;21.27;;
6378;SDS011;3222;48.858;10.128;2024-03-08T10:00:53;31.20;;;21.73;;
6378;SDS011;3222;48.858;10.128;2024-03-08T10:03:22;32.37;;;22.97;;
6378;SDS011;3222;48.858;10.128;2024-03-08T10:05:48;29.00;;;21.17;;
6378;SDS011;3222;48.858;10.128;2024-03-08T10:08:14;31.33;;;22.10;;
6378;SDS011;3222;48.858;10.128;2024-03-08T10:10:39;31.37;;;22.30;;
6378;SDS011;3222;48.858;10.128;2024-03-08T10:13:09;33.27;;;22.40;;
6378;SDS011;3222;48.858;10.128;2024-03-08T10:15:36;29.23;;;20.80;;
6378;SDS011;3222;48.858;10.128;2024-03-08T10:18:03;30.47;;;21.10;;
6378;SDS011;3222;48.858;10.128;2024-03-08T10:20:32;30.50;;;21.47;;
6378;SDS011;3222;48.858;10.128;2024-03-08T10:23:01;30.90;;;21.40;;
6378;SDS011;3222;48.858;10.128;2024-03-08T10:25:31;32.60;;;22.87;;
6378;SDS011;3222;48.858;10.128;2024-03-08T10:27:57;31.77;;;22.90;;
6378;SDS011;3222;48.858;10.128;2024-03-08T10:30:22;29.80;;;21.47;;
6378;SDS011;3222;48.858;10.128;2024-03-08T10:32:48;33.03;;;22.83;;
6378;SDS011;3222;48.858;10.128;2024-03-08T10:35:14;34.00;;;23.10;;
6378;SDS011;3222;48.858;10.128;2024-03-08T10:37:44;29.30;;;20.80;;
6378;SDS011;3222;48.858;10.128;2024-03-08T10:40:20;30.20;;;21.57;;
6378;SDS011;3222;48.858;10.128;2024-03-08T10:42:52;29.93;;;21.03;;
6378;SDS011;3222;48.858;10.128;2024-03-08T10:45:35;30.27;;;22.17;;
6378;SDS011;3222;48.858;10.128;2024-03-08T10:51:04;31.90;;;22.90;;
6378;SDS011;3222;48.858;10.128;2024-03-08T10:53:30;28.57;;;20.53;;
6378;SDS011;3222;48.858;10.128;2024-03-08T10:55:58;31.67;;;20.83;;
6378;SDS011;3222;48.858;10.128;2024-03-08T10:58:25;32.33;;;21.77;;
6378;SDS011;3222;48.858;10.128;2024-03-08T11:00:53;28.73;;;18.63;;
6378;SDS011;3222;48.858;10.128;2024-03-08T11:06:17;27.13;;;18.23;;
6378;SDS011;3222;48.858;10.128;2024-03-08T11:08:48;31.63;;;19.73;;
6378;SDS011;3222;48.858;10.128;2024-03-08T11:11:25;27.80;;;17.70;;
6378;SDS011;3222;48.858;10.128;2024-03-08T11:13:52;28.07;;;18.47;;
6378;SDS011;3222;48.858;10.128;2024-03-08T11:16:38;27.87;;;18.37;;
6378;SDS011;3222;48.858;10.128;2024-03-08T11:21:36;28.23;;;18.73;;
6378;SDS011;3222;48.858;10.128;2024-03-08T11:24:12;30.13;;;18.70;;
6378;SDS011;3222;48.858;10.128;2024-03-08T11:26:41;27.50;;;18.03;;
6378;SDS011;3222;48.858;10.128;2024-03-08T11:34:43;29.87;;;18.80;;
6378;SDS011;3222;48.858;10.128;2024-03-08T11:37:18;27.87;;;18.70;;
6378;SDS011;3222;48.858;10.128;2024-03-08T11:39:49;28.97;;;18.00;;
6378;SDS011;3222;48.858;10.128;2024-03-08T11:42:16;26.87;;;18.20;;
6378;SDS011;3222;48.858;10.128;2024-03-08T11:44:44;28.00;;;18.20;;
6378;SDS011;3222;48.858;10.128;2024-03-08T11:47:10;25.07;;;17.07;;
6378;SDS011;3222;48.858;10.128;2024-03-08T11:49:37;28.47;;;18.63;;
6378;SDS011;3222;48.858;10.128;2024-03-08T11:52:04;27.27;;;18.03;;
6378;SDS011;3222;48.858;10.128;2024-03-08T11:54:30;26.53;;;18.43;;
6378;SDS011;3222;48.858;10.128;2024-03-08T11:56:56;24.47;;;16.83;;
6378;SDS011;3222;48.858;10.128;2024-03-08T11:59:28;23.97;;;17.37;;
6378;SDS011;3222;48.858;10.128;2024-03-08T12:01:59;21.97;;;16.63;;
6378;SDS011;3222;48.858;10.128;2024-03-08T12:04:26;24.50;;;17.60;;
6378;SDS011;3222;48.858;10.128;2024-03-08T12:06:52;25.60;;;17.93;;
6378;SDS011;3222;48.858;10.128;2024-03-08T12:09:18;24.53;;;17.33;;
6378;SDS011;3222;48.858;10.128;2024-03-08T12:11:47;27.23;;;17.80;;
6378;SDS011;3222;48.858;10.128;2024-03-08T12:14:14;29.23;;;18.93;;
6378;SDS011;3222;48.858;10.128;2024-03-08T12:16:41;26.77;;;18.30;;
6378;SDS011;3222;48.858;10.128;2024-03-08T12:19:07;23.80;;;16.90;;
6378;SDS011;3222;48.858;10.128;2024-03-08T12:21:34;24.63;;;17.43;;
6378;SDS011;3222;48.858;10.128;2024-03-08T12:24:03;25.90;;;17.07;;
6378;SDS011;3222;48.858;10.128;2024-03-08T12:26:29;25.87;;;17.67;;
6378;SDS011;3222;48.858;10.128;2024-03-08T12:29:13;25.47;;;17.17;;
6378;SDS011;3222;48.858;10.128;2024-03-08T12:31:39;24.20;;;16.87;;
6378;SDS011;3222;48.858;10.128;2024-03-08T12:34:07;25.97;;;17.40;;
6378;SDS011;3222;48.858;10.128;2024-03-08T12:36:35;22.00;;;15.93;;
6378;SDS011;3222;48.858;10.128;2024-03-08T12:39:05;24.77;;;16.37;;
6378;SDS011;3222;48.858;10.128;2024-03-08T12:41:39;23.23;;;15.97;;
6378;SDS011;3222;48.858;10.128;2024-03-08T12:44:05;24.07;;;16.37;;
6378;SDS011;3222;48.858;10.128;2024-03-08T12:46:36;28.50;;;15.40;;
6378;SDS011;3222;48.858;10.128;2024-03-08T12:49:06;22.77;;;15.53;;
6378;SDS011;3222;48.858;10.128;2024-03-08T12:51:33;22.93;;;15.90;;
6378;SDS011;3222;48.858;10.128;2024-03-08T12:53:58;22.57;;;16.40;;
6378;SDS011;3222;48.858;10.128;2024-03-08T12:56:29;23.63;;;16.77;;
6378;SDS011;3222;48.858;10.128;2024-03-08T12:58:57;23.07;;;16.60;;
6378;SDS011;3222;48.858;10.128;2024-03-08T13:01:23;25.57;;;17.00;;
6378;SDS011;3222;48.858;10.128;2024-03-08T13:03:49;24.90;;;16.57;;
6378;SDS011;3222;48.858;10.128;2024-03-08T13:06:14;23.67;;;16.57;;
6378;SDS011;3222;48.858;10.128;2024-03-08T13:08:40;23.73;;;16.40;;
6378;SDS011;3222;48.858;10.128;2024-03-08T13:11:09;21.77;;;16.33;;
6378;SDS011;3222;48.858;10.128;2024-03-08T13:13:39;23.93;;;15.67;;
6378;SDS011;3222;48.858;10.128;2024-03-08T13:16:06;24.50;;;15.87;;
6378;SDS011;3222;48.858;10.128;2024-03-08T13:18:35;23.87;;;16.07;;
6378;SDS011;3222;48.858;10.128;2024-03-08T13:21:01;22.73;;;16.57;;
6378;SDS011;3222;48.858;10.128;2024-03-08T13:23:31;21.93;;;16.43;;
6378;SDS011;3222;48.858;10.128;2024-03-08T13:25:56;24.53;;;16.80;;
6378;SDS011;3222;48.858;10.128;2024-03-08T13:28:22;22.60;;;15.77;;
6378;SDS011;3222;48.858;10.128;2024-03-08T13:30:53;23.70;;;16.20;;
6378;SDS011;3222;48.858;10.128;2024-03-08T13:33:19;24.07;;;16.10;;
6378;SDS011;3222;48.858;10.128;2024-03-08T13:35:45;23.53;;;16.67;;
6378;SDS011;3222;48.858;10.128;2024-03-08T13:38:11;19.53;;;14.57;;
6378;SDS011;3222;48.858;10.128;2024-03-08T13:40:38;19.73;;;14.27;;
6378;SDS011;3222;48.858;10.128;2024-03-08T13:43:05;22.37;;;15.23;;
6378;SDS011;3222;48.858;10.128;2024-03-08T13:45:33;19.47;;;14.33;;
6378;SDS011;3222;48.858;10.128;2024-03-08T13:48:03;19.53;;;14.50;;
6378;SDS011;3222;48.858;10.128;2024-03-08T13:50:29;19.90;;;14.47;;
6378;SDS011;3222;48.858;10.128;2024-03-08T13:52:56;18.17;;;14.43;;
6378;SDS011;3222;48.858;10.128;2024-03-08T13:55:22;19.93;;;14.77;;
6378;SDS011;3222;48.858;10.128;2024-03-08T13:57:48;18.43;;;14.37;;
6378;SDS011;3222;48.858;10.128;2024-03-08T14:00:16;18.87;;;14.10;;
6378;SDS011;3222;48.858;10.128;2024-03-08T14:02:42;20.00;;;14.17;;
6378;SDS011;3222;48.858;10.128;2024-03-08T14:05:08;20.00;;;14.33;;
6378;SDS011;3222;48.858;10.128;2024-03-08T14:07:34;18.80;;;13.93;;
6378;SDS011;3222;48.858;10.128;2024-03-08T14:10:00;17.57;;;13.23;;
6378;SDS011;3222;48.858;10.128;2024-03-08T14:12:26;18.13;;;14.53;;
6378;SDS011;3222;48.858;10.128;2024-03-08T14:14:55;20.43;;;14.30;;
6378;SDS011;3222;48.858;10.128;2024-03-08T14:17:27;20.17;;;13.83;;
6378;SDS011;3222;48.858;10.128;2024-03-08T14:19:56;17.77;;;13.83;;
6378;SDS011;3222;48.858;10.128;2024-03-08T14:22:21;19.80;;;14.20;;
6378;SDS011;3222;48.858;10.128;2024-03-08T14:24:48;18.37;;;13.53;;
6378;SDS011;3222;48.858;10.128;2024-03-08T14:27:14;15.47;;;12.40;;
6378;SDS011;3222;48.858;10.128;2024-03-08T14:29:42;17.57;;;13.13;;
6378;SDS011;3222;48.858;10.128;2024-03-08T14:32:08;17.10;;;13.17;;
6378;SDS011;3222;48.858;10.128;2024-03-08T14:34:35;18.20;;;13.07;;
6378;SDS011;3222;48.858;10.128;2024-03-08T14:37:01;17.67;;;12.70;;
6378;SDS011;3222;48.858;10.128;2024-03-08T14:39:36;16.37;;;12.27;;
6378;SDS011;3222;48.858;10.128;2024-03-08T14:42:02;18.23;;;12.53;;
6378;SDS011;3222;48.858;10.128;2024-03-08T14:44:28;16.83;;;12.03;;
6378;SDS011;3222;48.858;10.128;2024-03-08T14:46:57;15.37;;;12.17;;
6378;SDS011;3222;48.858;10.128;2024-03-08T14:49:24;18.30;;;12.80;;